createdAt,value
2022-08-28T00:01:05.479Z,5.63
2022-08-28T00:03:32.810Z,5.60
2022-08-28T00:06:01.017Z,5.85
2022-08-28T00:08:28.833Z,5.47
2022-08-28T00:10:56.215Z,5.88
2022-08-28T00:13:25.393Z,5.20
2022-08-28T00:16:01.072Z,5.38
2022-08-28T00:18:31.300Z,5.43
2022-08-28T00:20:59.791Z,5.15
2022-08-28T00:23:40.315Z,5.47
2022-08-28T00:26:11.449Z,5.82
2022-08-28T00:28:38.596Z,5.25
2022-08-28T00:31:05.856Z,5.78
2022-08-28T00:33:35.399Z,5.88
2022-08-28T00:36:03.795Z,6.25
2022-08-28T00:38:31.502Z,6.18
2022-08-28T00:41:03.966Z,7.60
2022-08-28T00:43:41.736Z,7.03
2022-08-28T00:46:23.073Z,6.68
2022-08-28T00:48:50.925Z,7.05
2022-08-28T00:51:39.084Z,6.68
2022-08-28T00:54:08.396Z,6.68
2022-08-28T00:56:39.853Z,7.22
2022-08-28T00:59:15.643Z,6.43
2022-08-28T01:01:45.525Z,7.72
2022-08-28T01:04:20.300Z,7.55
2022-08-28T01:06:52.575Z,7.38
2022-08-28T01:09:22.938Z,7.40
2022-08-28T01:11:54.345Z,7.95
2022-08-28T01:14:23.488Z,7.38
2022-08-28T01:16:55.654Z,8.85
2022-08-28T01:19:38.010Z,7.78
2022-08-28T01:22:23.107Z,8.40
2022-08-28T01:24:54.251Z,8.43
2022-08-28T01:27:24.957Z,13.38
2022-08-28T01:29:52.311Z,14.90
2022-08-28T01:32:44.207Z,14.82
2022-08-28T01:35:18.867Z,13.82
2022-08-28T01:37:45.947Z,14.73
2022-08-28T01:40:17.804Z,13.50
2022-08-28T01:42:45.194Z,15.65
2022-08-28T01:45:18.457Z,14.15
2022-08-28T01:47:46.936Z,13.77
2022-08-28T01:50:18.679Z,14.52
2022-08-28T01:52:45.721Z,14.25
2022-08-28T01:55:13.726Z,12.52
2022-08-28T01:57:50.363Z,13.65
2022-08-28T02:00:18.780Z,12.60
2022-08-28T02:02:46.137Z,12.48
2022-08-28T02:05:13.195Z,12.20
2022-08-28T02:07:40.702Z,12.30
2022-08-28T02:10:11.128Z,12.23
2022-08-28T02:12:38.811Z,12.57
2022-08-28T02:15:07.743Z,10.85
2022-08-28T02:17:35.025Z,10.20
2022-08-28T02:20:02.395Z,11.23
2022-08-28T02:22:29.539Z,9.68
2022-08-28T02:24:56.540Z,9.75
2022-08-28T02:27:23.680Z,8.60
2022-08-28T02:29:50.993Z,9.95
2022-08-28T02:32:18.614Z,9.38
2022-08-28T02:34:45.650Z,9.38
2022-08-28T02:37:13.763Z,9.02
2022-08-28T02:39:41.405Z,8.50
2022-08-28T02:42:09.386Z,9.00
2022-08-28T02:44:36.533Z,9.38
2022-08-28T02:47:05.134Z,8.88
2022-08-28T02:49:35.537Z,8.70
2022-08-28T02:52:04.698Z,8.10
2022-08-28T02:54:31.651Z,8.30
2022-08-28T02:56:58.737Z,8.40
2022-08-28T02:59:25.796Z,8.45
2022-08-28T03:01:52.998Z,7.07
2022-08-28T03:04:20.058Z,8.35
2022-08-28T03:06:47.148Z,7.45
2022-08-28T03:09:14.157Z,8.93
2022-08-28T03:11:41.478Z,8.23
2022-08-28T03:14:08.539Z,7.85
2022-08-28T03:16:35.631Z,7.80
2022-08-28T03:19:04.015Z,8.05
2022-08-28T03:21:31.001Z,8.07
2022-08-28T03:23:58.406Z,8.02
2022-08-28T03:26:25.409Z,8.02
2022-08-28T03:28:54.085Z,7.53
2022-08-28T03:31:28.474Z,7.40
2022-08-28T03:33:56.239Z,7.95
2022-08-28T03:36:27.148Z,7.88
2022-08-28T03:38:57.287Z,8.02
2022-08-28T03:41:29.194Z,8.23
2022-08-28T03:44:01.072Z,7.07
2022-08-28T03:46:34.293Z,8.45
2022-08-28T03:49:04.852Z,8.45
2022-08-28T03:51:34.172Z,7.78
2022-08-28T03:54:04.368Z,7.63
2022-08-28T03:56:31.806Z,7.80
2022-08-28T03:59:05.252Z,7.15
2022-08-28T04:01:33.635Z,7.85
2022-08-28T04:04:01.011Z,8.15
2022-08-28T04:06:28.122Z,7.93
2022-08-28T04:08:55.855Z,7.65
2022-08-28T04:11:28.138Z,7.60
2022-08-28T04:13:55.127Z,8.35
2022-08-28T04:16:22.197Z,7.30
2022-08-28T04:18:50.137Z,7.68
2022-08-28T04:21:23.870Z,7.80
2022-08-28T04:23:51.338Z,7.93
2022-08-28T04:26:22.950Z,7.88
2022-08-28T04:28:50.728Z,7.97
2022-08-28T04:31:19.814Z,8.00
2022-08-28T04:34:05.528Z,8.00
2022-08-28T04:36:36.373Z,8.18
2022-08-28T04:39:08.577Z,8.23
2022-08-28T04:41:38.841Z,7.70
2022-08-28T04:44:07.224Z,8.13
2022-08-28T04:46:34.746Z,8.02
2022-08-28T04:49:04.298Z,8.15
2022-08-28T04:51:31.756Z,8.52
2022-08-28T04:53:59.247Z,8.77
2022-08-28T04:56:27.006Z,7.93
2022-08-28T04:58:54.835Z,8.30
2022-08-28T05:01:24.707Z,9.25
2022-08-28T05:04:00.200Z,8.77
2022-08-28T05:06:29.997Z,8.63
2022-08-28T05:08:59.140Z,8.02
2022-08-28T05:11:33.460Z,7.93
2022-08-28T05:14:07.278Z,8.30
2022-08-28T05:16:43.306Z,7.68
2022-08-28T05:19:10.943Z,7.68
2022-08-28T05:21:38.854Z,8.43
2022-08-28T05:24:07.247Z,6.88
2022-08-28T05:26:35.691Z,6.80
2022-08-28T05:29:06.969Z,7.05
2022-08-28T05:31:35.176Z,7.03
2022-08-28T05:34:04.473Z,6.53
2022-08-28T05:36:37.181Z,6.75
2022-08-28T05:39:08.862Z,7.10
2022-08-28T05:41:37.074Z,7.55
2022-08-28T05:44:08.676Z,6.60
2022-08-28T05:46:42.774Z,6.72
2022-08-28T05:49:10.694Z,6.22
2022-08-28T05:51:41.671Z,6.82
2022-08-28T05:54:09.238Z,6.72
2022-08-28T05:56:40.545Z,6.35
2022-08-28T05:59:09.131Z,6.53
2022-08-28T06:01:42.287Z,6.30
2022-08-28T06:04:25.610Z,6.07
2022-08-28T06:06:53.410Z,7.25
2022-08-28T06:09:29.662Z,6.63
2022-08-28T06:12:02.891Z,6.22
2022-08-28T06:14:31.294Z,6.82
2022-08-28T06:17:00.050Z,6.80
2022-08-28T06:19:30.118Z,7.30
2022-08-28T06:22:01.500Z,7.10
2022-08-28T06:24:34.915Z,6.47
2022-08-28T06:27:02.001Z,6.80
2022-08-28T06:29:29.420Z,6.65
2022-08-28T06:32:04.905Z,7.10
2022-08-28T06:34:32.080Z,6.78
2022-08-28T06:36:59.406Z,6.18
2022-08-28T06:39:27.064Z,7.03
2022-08-28T06:41:54.258Z,6.10
2022-08-28T06:44:21.816Z,6.57
2022-08-28T06:46:52.511Z,6.85
2022-08-28T06:49:20.107Z,6.57
2022-08-28T06:51:47.218Z,7.43
2022-08-28T06:54:21.116Z,6.97
2022-08-28T06:56:48.806Z,7.47
2022-08-28T06:59:16.052Z,6.97
2022-08-28T07:01:43.201Z,6.88
2022-08-28T07:04:13.737Z,6.93
2022-08-28T07:06:53.834Z,7.28
2022-08-28T07:09:23.144Z,7.07
2022-08-28T07:11:51.118Z,7.25
2022-08-28T07:14:18.437Z,6.63
2022-08-28T07:16:46.074Z,6.85
2022-08-28T07:19:14.203Z,6.88
2022-08-28T07:21:44.919Z,6.63
2022-08-28T07:24:15.287Z,7.32
2022-08-28T07:26:44.301Z,7.05
2022-08-28T07:29:12.121Z,6.60
2022-08-28T07:31:50.432Z,7.68
2022-08-28T07:34:21.671Z,6.80
2022-08-28T07:36:54.182Z,8.15
2022-08-28T07:39:21.264Z,6.50
2022-08-28T07:41:48.552Z,8.00
2022-08-28T07:44:34.876Z,6.80
2022-08-28T07:47:05.795Z,7.22
2022-08-28T07:49:34.682Z,6.93
2022-08-28T07:52:02.940Z,7.45
2022-08-28T07:54:29.939Z,7.68
2022-08-28T07:56:57.089Z,7.53
2022-08-28T07:59:24.421Z,6.45
2022-08-28T08:01:52.234Z,7.13
2022-08-28T08:04:21.583Z,7.35
2022-08-28T08:06:54.386Z,6.78
2022-08-28T08:09:24.261Z,6.85
2022-08-28T08:11:51.320Z,7.38
2022-08-28T08:14:18.491Z,7.95
2022-08-28T08:16:47.469Z,7.68
2022-08-28T08:19:16.182Z,6.82
2022-08-28T08:21:48.329Z,6.97
2022-08-28T08:24:21.158Z,6.82
2022-08-28T08:26:56.517Z,5.82
2022-08-28T08:29:31.627Z,7.70
2022-08-28T08:32:06.061Z,6.60
2022-08-28T08:34:38.635Z,7.45
2022-08-28T08:37:06.450Z,6.53
2022-08-28T08:39:35.543Z,6.20
2022-08-28T08:42:07.038Z,7.30
2022-08-28T08:44:42.399Z,6.55
2022-08-28T08:47:51.372Z,6.25
2022-08-28T08:50:34.476Z,6.43
2022-08-28T08:53:22.740Z,5.90
2022-08-28T08:55:54.379Z,6.32
2022-08-28T08:58:34.293Z,6.15
2022-08-28T09:01:25.690Z,6.65
2022-08-28T09:04:03.922Z,6.70
2022-08-28T09:07:13.102Z,6.57
2022-08-28T09:09:53.430Z,6.97
2022-08-28T09:12:27.792Z,6.00
2022-08-28T09:15:18.053Z,6.30
2022-08-28T09:18:15.270Z,5.68
2022-08-28T09:20:42.381Z,6.55
2022-08-28T09:23:12.855Z,6.35
2022-08-28T09:25:59.591Z,5.82
2022-08-28T09:28:30.649Z,6.20
2022-08-28T09:31:03.915Z,5.63
2022-08-28T09:33:48.217Z,5.75
2022-08-28T09:36:37.168Z,6.10
2022-08-28T09:39:05.523Z,6.18
2022-08-28T09:41:54.157Z,6.38
2022-08-28T09:44:21.205Z,5.80
2022-08-28T09:46:51.167Z,5.93
2022-08-28T09:49:28.753Z,5.72
2022-08-28T09:51:59.709Z,6.00
2022-08-28T09:54:41.321Z,5.82
2022-08-28T09:57:08.389Z,6.50
2022-08-28T09:59:35.387Z,5.43
2022-08-28T10:02:49.454Z,5.53
2022-08-28T10:05:28.871Z,5.43
2022-08-28T10:08:09.357Z,5.07
2022-08-28T10:10:55.699Z,5.75
2022-08-28T10:13:39.380Z,5.40
2022-08-28T10:16:14.398Z,6.25
2022-08-28T10:19:02.566Z,5.38
2022-08-28T10:22:10.885Z,5.22
2022-08-28T10:25:05.106Z,5.30
2022-08-28T10:27:50.141Z,5.18
2022-08-28T10:30:23.354Z,5.18
2022-08-28T10:33:07.989Z,4.97
2022-08-28T10:35:55.857Z,5.32
2022-08-28T10:38:47.269Z,4.78
2022-08-28T10:41:41.182Z,4.80
2022-08-28T10:44:11.140Z,4.93
2022-08-28T10:46:49.273Z,4.32
2022-08-28T10:49:49.449Z,4.75
2022-08-28T10:52:31.206Z,4.47
2022-08-28T10:55:24.235Z,4.55
2022-08-28T10:57:58.286Z,5.18
2022-08-28T11:00:28.683Z,4.78
2022-08-28T11:03:32.694Z,4.68
2022-08-28T11:06:11.659Z,4.57
2022-08-28T11:08:39.962Z,4.80
2022-08-28T11:11:35.051Z,5.40
2022-08-28T11:14:02.222Z,4.68
2022-08-28T11:16:30.307Z,5.07
2022-08-28T11:19:40.861Z,5.60
2022-08-28T11:22:48.225Z,4.82
2022-08-28T11:25:32.723Z,5.30
2022-08-28T11:28:24.559Z,4.70
2022-08-28T11:31:06.680Z,5.80
2022-08-28T11:33:53.064Z,5.47
2022-08-28T11:36:20.035Z,5.18
2022-08-28T11:38:53.306Z,5.25
2022-08-28T11:41:35.323Z,4.93
2022-08-28T11:44:11.467Z,4.90
2022-08-28T11:46:50.939Z,4.90
2022-08-28T11:49:24.601Z,4.93
2022-08-28T11:52:24.990Z,4.75
2022-08-28T11:55:21.901Z,4.82
2022-08-28T12:00:56.155Z,4.78
2022-08-28T12:03:40.717Z,5.00
2022-08-28T12:06:08.955Z,5.47
2022-08-28T12:08:45.112Z,5.15
2022-08-28T12:11:40.782Z,4.82
2022-08-28T12:14:09.517Z,4.97
2022-08-28T12:17:00.965Z,4.93
2022-08-28T12:19:52.560Z,4.65
2022-08-28T12:22:39.366Z,4.68
2022-08-28T12:25:36.065Z,4.90
2022-08-28T12:28:33.941Z,4.70
2022-08-28T12:31:52.602Z,5.15
2022-08-28T12:34:31.336Z,5.32
2022-08-28T12:37:02.224Z,5.15
2022-08-28T12:39:33.019Z,4.78
2022-08-28T12:42:03.494Z,5.22
2022-08-28T12:44:33.657Z,4.72
2022-08-28T12:47:00.879Z,4.97
2022-08-28T12:49:37.169Z,5.55
2022-08-28T12:52:23.146Z,5.82
2022-08-28T12:54:55.235Z,5.07
2022-08-28T12:57:25.344Z,4.53
2022-08-28T13:00:09.340Z,4.63
2022-08-28T13:02:36.617Z,4.45
2022-08-28T13:05:30.057Z,5.90
2022-08-28T13:07:59.993Z,4.63
2022-08-28T13:10:39.700Z,4.90
2022-08-28T13:13:19.879Z,5.10
2022-08-28T13:16:09.345Z,5.40
2022-08-28T13:18:55.376Z,4.97
2022-08-28T13:21:33.467Z,5.82
2022-08-28T13:24:20.581Z,4.57
2022-08-28T13:26:50.437Z,4.88
2022-08-28T13:29:24.341Z,4.68
2022-08-28T13:32:17.988Z,5.45
2022-08-28T13:35:09.403Z,6.10
2022-08-28T13:37:48.478Z,6.93
2022-08-28T13:40:53.272Z,5.00
2022-08-28T13:43:11.858Z,4.93
2022-08-28T13:45:43.912Z,4.90
2022-08-28T13:48:17.462Z,5.25
2022-08-28T13:50:49.767Z,5.40
2022-08-28T13:53:20.803Z,6.32
2022-08-28T13:55:50.321Z,5.18
2022-08-28T13:58:17.970Z,5.78
2022-08-28T14:00:49.704Z,5.47
2022-08-28T14:03:35.744Z,5.72
2022-08-28T14:06:12.866Z,4.60
2022-08-28T14:08:41.572Z,4.45
2022-08-28T14:11:12.741Z,5.03
2022-08-28T14:13:47.256Z,5.13
2022-08-28T14:16:25.002Z,5.35
2022-08-28T14:18:53.022Z,5.32
2022-08-28T14:21:21.159Z,4.55
2022-08-28T14:23:48.129Z,4.40
2022-08-28T14:26:15.157Z,4.80
2022-08-28T14:28:42.804Z,4.90
2022-08-28T14:31:14.217Z,5.35
2022-08-28T14:33:42.483Z,4.80
2022-08-28T14:36:22.511Z,4.75
2022-08-28T14:38:54.002Z,3.90
2022-08-28T14:41:23.134Z,4.38
2022-08-28T14:43:50.811Z,4.03
2022-08-28T14:46:24.509Z,4.45
2022-08-28T14:48:51.964Z,4.32
2022-08-28T14:51:19.169Z,4.70
2022-08-28T14:53:46.875Z,4.95
2022-08-28T14:56:13.923Z,4.78
2022-08-28T14:58:41.078Z,5.00
2022-08-28T15:01:08.168Z,4.75
2022-08-28T15:03:35.294Z,5.00
2022-08-28T15:06:09.292Z,4.68
2022-08-28T15:08:37.582Z,4.57
2022-08-28T15:11:10.051Z,5.38
2022-08-28T15:13:37.962Z,4.55
2022-08-28T15:16:16.083Z,5.28
2022-08-28T15:18:44.966Z,4.60
2022-08-28T15:21:32.780Z,5.28
2022-08-28T15:24:02.450Z,5.07
2022-08-28T15:26:31.292Z,5.10
2022-08-28T15:29:02.472Z,5.28
2022-08-28T15:31:49.006Z,4.78
2022-08-28T15:34:28.553Z,5.00
2022-08-28T15:36:57.107Z,4.57
2022-08-28T15:39:45.516Z,5.45
2022-08-28T15:42:13.057Z,5.57
2022-08-28T15:44:40.240Z,4.93
2022-08-28T15:47:08.014Z,5.10
2022-08-28T15:49:43.351Z,5.25
2022-08-28T15:52:14.095Z,5.18
2022-08-28T15:54:41.710Z,5.22
2022-08-28T15:57:08.702Z,4.75
2022-08-28T15:59:42.382Z,5.35
2022-08-28T16:02:16.583Z,4.53
2022-08-28T16:04:43.740Z,5.13
2022-08-28T16:07:11.183Z,5.20
2022-08-28T16:09:38.260Z,6.13
2022-08-28T16:12:06.616Z,5.45
2022-08-28T16:14:34.122Z,5.53
2022-08-28T16:17:05.477Z,4.95
2022-08-28T16:19:41.092Z,5.40
2022-08-28T16:22:13.044Z,4.80
2022-08-28T16:24:40.000Z,5.00
2022-08-28T16:27:09.684Z,4.55
2022-08-28T16:29:40.557Z,4.93
2022-08-28T16:32:07.894Z,4.38
2022-08-28T16:34:35.519Z,5.45
2022-08-28T16:37:04.453Z,4.57
2022-08-28T16:39:31.787Z,4.90
2022-08-28T16:41:58.948Z,5.07
2022-08-28T16:44:26.700Z,4.35
2022-08-28T16:46:55.628Z,4.75
2022-08-28T16:49:23.752Z,4.82
2022-08-28T16:51:51.146Z,4.47
2022-08-28T16:54:18.825Z,4.13
2022-08-28T16:56:46.175Z,4.80
2022-08-28T16:59:20.503Z,5.15
2022-08-28T17:01:53.683Z,5.53
2022-08-28T17:04:21.742Z,4.97
2022-08-28T17:06:49.169Z,5.30
2022-08-28T17:09:16.190Z,5.18
2022-08-28T17:11:43.335Z,5.05
2022-08-28T17:14:12.106Z,5.82
2022-08-28T17:16:39.335Z,5.93
2022-08-28T17:19:06.461Z,5.53
2022-08-28T17:21:52.063Z,5.10
2022-08-28T17:24:19.683Z,5.80
2022-08-28T17:26:47.103Z,5.35
2022-08-28T17:29:14.189Z,5.78
2022-08-28T17:31:41.443Z,5.72
2022-08-28T17:34:08.752Z,5.90
2022-08-28T17:36:38.816Z,5.75
2022-08-28T17:39:10.220Z,5.72
2022-08-28T17:41:37.431Z,5.53
2022-08-28T17:44:05.230Z,5.65
2022-08-28T17:46:37.400Z,4.82
2022-08-28T17:49:07.193Z,4.47
2022-08-28T17:51:42.952Z,4.00
2022-08-28T17:54:18.386Z,4.15
2022-08-28T17:56:46.521Z,3.97
2022-08-28T17:59:14.746Z,4.35
2022-08-28T18:01:44.668Z,4.25
2022-08-28T18:04:13.120Z,4.20
2022-08-28T18:06:40.477Z,3.92
2022-08-28T18:09:09.488Z,3.60
2022-08-28T18:11:37.533Z,3.63
2022-08-28T18:14:05.150Z,4.18
2022-08-28T18:16:34.803Z,3.60
2022-08-28T18:19:03.806Z,3.90
2022-08-28T18:21:31.749Z,3.72
2022-08-28T18:23:58.957Z,3.88
2022-08-28T18:26:26.183Z,3.10
2022-08-28T18:28:53.502Z,3.35
2022-08-28T18:31:20.645Z,3.22
2022-08-28T18:33:47.740Z,3.33
2022-08-28T18:36:16.318Z,3.17
2022-08-28T18:38:44.707Z,3.33
2022-08-28T18:41:12.196Z,2.90
2022-08-28T18:43:39.523Z,3.10
2022-08-28T18:46:09.466Z,3.08
2022-08-28T18:48:38.062Z,2.95
2022-08-28T18:51:10.855Z,2.72
2022-08-28T18:53:38.856Z,2.58
2022-08-28T18:56:10.048Z,2.70
2022-08-28T18:58:40.967Z,2.85
2022-08-28T19:01:09.404Z,2.47
2022-08-28T19:03:36.836Z,2.80
2022-08-28T19:06:06.290Z,2.58
2022-08-28T19:08:35.312Z,3.08
2022-08-28T19:11:11.871Z,2.72
2022-08-28T19:13:41.059Z,2.90
2022-08-28T19:16:08.940Z,2.60
2022-08-28T19:18:36.122Z,2.58
2022-08-28T19:21:16.326Z,2.42
2022-08-28T19:23:51.817Z,2.60
2022-08-28T19:26:22.877Z,3.03
2022-08-28T19:28:50.663Z,2.35
2022-08-28T19:31:18.339Z,2.83
2022-08-28T19:33:46.863Z,2.95
2022-08-28T19:36:14.771Z,2.85
2022-08-28T19:38:42.381Z,2.55
2022-08-28T19:41:11.059Z,2.58
2022-08-28T19:43:42.952Z,2.75
2022-08-28T19:46:19.377Z,2.58
2022-08-28T19:48:52.138Z,2.55
2022-08-28T19:51:23.091Z,2.40
2022-08-28T19:53:58.308Z,2.33
2022-08-28T19:56:28.231Z,2.60
2022-08-28T19:59:01.093Z,2.30
2022-08-28T20:01:31.444Z,2.45
2022-08-28T20:03:59.978Z,2.53
2022-08-28T20:06:28.387Z,2.53
2022-08-28T20:08:55.598Z,2.75
2022-08-28T20:11:30.069Z,2.30
2022-08-28T20:14:04.581Z,2.15
2022-08-28T20:16:35.492Z,3.03
2022-08-28T20:19:04.343Z,3.08
2022-08-28T20:21:37.869Z,2.35
2022-08-28T20:24:13.287Z,2.15
2022-08-28T20:26:40.762Z,1.98
2022-08-28T20:29:09.088Z,2.33
2022-08-28T20:31:40.551Z,2.40
2022-08-28T20:34:10.606Z,2.22
2022-08-28T20:36:38.573Z,2.00
2022-08-28T20:39:09.196Z,2.03
2022-08-28T20:41:38.867Z,2.45
2022-08-28T20:44:07.835Z,2.40
2022-08-28T20:46:40.523Z,2.78
2022-08-28T20:49:11.455Z,2.42
2022-08-28T20:51:56.675Z,2.05
2022-08-28T20:54:34.747Z,2.65
2022-08-28T20:57:04.289Z,2.45
2022-08-28T20:59:35.418Z,2.70
2022-08-28T21:02:13.421Z,2.33
2022-08-28T21:04:42.407Z,2.30
2022-08-28T21:07:10.622Z,2.78
2022-08-28T21:10:03.863Z,2.33
2022-08-28T21:12:25.107Z,2.78
2022-08-28T21:14:53.105Z,2.45
2022-08-28T21:17:28.886Z,2.30
2022-08-28T21:20:01.432Z,2.67
2022-08-28T21:22:31.565Z,2.03
2022-08-28T21:24:59.161Z,2.60
2022-08-28T21:27:26.849Z,2.40
2022-08-28T21:29:59.289Z,2.40
2022-08-28T21:32:28.671Z,2.42
2022-08-28T21:34:56.098Z,2.28
2022-08-28T21:37:23.995Z,2.15
2022-08-28T21:39:52.401Z,2.85
2022-08-28T21:42:21.028Z,2.42
2022-08-28T21:44:51.548Z,2.75
2022-08-28T21:47:23.227Z,2.58
2022-08-28T21:49:53.303Z,2.60
2022-08-28T21:52:23.116Z,2.78
2022-08-28T21:54:50.556Z,2.13
2022-08-28T21:57:17.828Z,2.38
2022-08-28T21:59:44.909Z,2.90
2022-08-28T22:02:12.009Z,2.38
2022-08-28T22:04:39.177Z,2.58
2022-08-28T22:07:06.698Z,2.67
2022-08-28T22:09:33.699Z,2.60
2022-08-28T22:12:01.438Z,2.53
2022-08-28T22:14:28.775Z,3.03
2022-08-28T22:16:56.754Z,2.80
2022-08-28T22:19:23.914Z,2.58
2022-08-28T22:22:09.679Z,2.70
2022-08-28T22:24:37.617Z,3.17
2022-08-28T22:27:05.872Z,3.10
2022-08-28T22:29:36.531Z,3.42
2022-08-28T22:32:06.499Z,3.60
2022-08-28T22:34:45.233Z,3.65
2022-08-28T22:37:13.696Z,3.35
2022-08-28T22:39:42.559Z,3.50
2022-08-28T22:42:10.287Z,3.58
2022-08-28T22:44:38.546Z,3.78
2022-08-28T22:47:06.572Z,3.78
2022-08-28T22:49:33.656Z,4.10
2022-08-28T22:52:03.242Z,4.22
2022-08-28T22:54:33.263Z,3.50
2022-08-28T22:57:00.233Z,3.70
2022-08-28T22:59:28.062Z,3.22
2022-08-28T23:01:55.252Z,3.25
2022-08-28T23:04:22.365Z,3.65
2022-08-28T23:06:49.837Z,3.33
2022-08-28T23:09:16.785Z,3.63
2022-08-28T23:11:44.034Z,4.03
2022-08-28T23:14:11.106Z,3.95
2022-08-28T23:16:38.650Z,3.70
2022-08-28T23:19:09.623Z,4.03
2022-08-28T23:21:43.771Z,4.13
2022-08-28T23:24:16.315Z,4.13
2022-08-28T23:26:45.172Z,4.47
2022-08-28T23:29:12.814Z,3.97
2022-08-28T23:31:40.035Z,3.83
2022-08-28T23:34:07.712Z,5.32
2022-08-28T23:36:35.957Z,4.90
2022-08-28T23:39:05.081Z,4.90
2022-08-28T23:41:33.109Z,4.80
2022-08-28T23:44:03.175Z,5.32
2022-08-28T23:46:32.436Z,5.40
2022-08-28T23:48:59.907Z,5.13
2022-08-28T23:51:27.022Z,4.80
2022-08-28T23:53:55.152Z,6.72
2022-08-28T23:56:22.200Z,6.85
2022-08-28T23:58:55.065Z,5.72
